Terminal Aerodrome Forecast
Issued by NWS

Home | Current Version | Previous Version | Text Only | Print | Product List | Glossary On
Versions: 1 2 3 4 5 6 7 8 9 10 11 12 13 14 15 16
291
FTUS46 KSEW 201728
TAFPAE
TAF
KPAE 201728Z 2018/2118 31006KT P6SM BKN008 BKN050
     FM202000 31006KT P6SM SCT015 BKN050
     FM210400 VRB04KT P6SM SCT050
     FM211000 16006KT P6SM BKN012=

USA.gov is the U.S. government's official web portal to all federal, state and local government web resources and services.